createdAt,value
2018-08-30T00:00:49.361Z,76.79
2018-08-30T00:01:49.374Z,77.17
2018-08-30T00:02:49.407Z,77.08
2018-08-30T00:03:49.422Z,76.79
2018-08-30T00:04:49.443Z,77.61
2018-08-30T00:05:49.470Z,77.51
2018-08-30T00:06:49.482Z,77.51
2018-08-30T00:07:49.520Z,77.36
2018-08-30T00:08:49.538Z,77.71
2018-08-30T00:09:49.552Z,77.51
2018-08-30T00:10:49.571Z,77.51
2018-08-30T00:11:49.597Z,77.80
2018-08-30T00:12:49.628Z,77.61
2018-08-30T00:13:49.653Z,78.38
2018-08-30T00:14:49.670Z,78.00
2018-08-30T00:15:49.695Z,78.57
2018-08-30T00:16:49.709Z,78.47
2018-08-30T00:17:49.732Z,78.38
2018-08-30T00:18:49.758Z,78.77
2018-08-30T00:19:49.785Z,78.77
2018-08-30T00:20:49.806Z,78.57
2018-08-30T00:21:49.820Z,78.67
2018-08-30T00:22:49.836Z,79.44
2018-08-30T00:23:49.862Z,79.34
2018-08-30T00:24:49.891Z,79.14
2018-08-30T00:25:49.906Z,79.14
2018-08-30T00:26:49.925Z,79.05
2018-08-30T00:27:49.954Z,79.05
2018-08-30T00:28:49.970Z,79.14
2018-08-30T00:29:49.996Z,79.01
2018-08-30T00:30:50.020Z,79.59
2018-08-30T00:31:50.035Z,79.68
2018-08-30T00:32:50.054Z,79.78
2018-08-30T00:33:50.080Z,79.68
2018-08-30T00:34:50.101Z,80.07
2018-08-30T00:35:50.129Z,79.97
2018-08-30T00:36:50.149Z,80.26
2018-08-30T00:37:50.161Z,80.07
2018-08-30T00:38:50.185Z,80.16
2018-08-30T00:39:50.212Z,80.26
2018-08-30T00:40:50.240Z,80.45
2018-08-30T00:41:50.255Z,80.35
2018-08-30T00:42:50.277Z,80.55
2018-08-30T00:43:50.290Z,80.35
2018-08-30T00:44:50.333Z,80.93
2018-08-30T00:45:50.345Z,80.74
2018-08-30T00:46:50.362Z,80.64
2018-08-30T00:47:50.387Z,81.31
2018-08-30T00:48:50.412Z,81.12
2018-08-30T00:49:50.422Z,81.22
2018-08-30T00:50:50.452Z,80.83
2018-08-30T00:51:50.477Z,80.93
2018-08-30T00:52:50.486Z,80.74
2018-08-30T00:53:50.512Z,81.12
2018-08-30T00:54:50.541Z,81.51
2018-08-30T00:55:50.553Z,81.98
2018-08-30T00:56:50.583Z,81.70
2018-08-30T00:57:50.622Z,81.70
2018-08-30T00:58:50.617Z,81.70
2018-08-30T00:59:50.646Z,81.98
2018-08-30T01:00:50.673Z,81.98
2018-08-30T01:01:50.686Z,81.85
2018-08-30T01:02:50.715Z,81.98
2018-08-30T01:03:50.740Z,82.23
2018-08-30T01:04:50.749Z,82.23
2018-08-30T01:05:50.776Z,82.52
2018-08-30T01:06:50.805Z,82.32
2018-08-30T01:07:50.816Z,82.23
2018-08-30T01:08:50.838Z,82.32
2018-08-30T01:09:50.864Z,82.42
2018-08-30T01:10:50.880Z,82.14
2018-08-30T01:11:50.906Z,82.42
2018-08-30T01:12:50.937Z,82.23
2018-08-30T01:13:50.949Z,82.14
2018-08-30T01:14:50.970Z,82.42
2018-08-30T01:15:50.985Z,82.23
2018-08-30T01:16:51.019Z,82.71
2018-08-30T01:17:51.041Z,82.81
2018-08-30T01:18:51.065Z,82.23
2018-08-30T01:19:51.078Z,82.81
2018-08-30T01:20:51.099Z,82.32
2018-08-30T01:21:51.114Z,82.23
2018-08-30T01:22:51.146Z,82.32
2018-08-30T01:23:51.172Z,82.32
2018-08-30T01:24:51.181Z,82.14
2018-08-30T01:25:51.206Z,82.23
2018-08-30T01:26:51.230Z,82.42
2018-08-30T01:27:51.256Z,82.81
2018-08-30T01:28:51.274Z,83.00
2018-08-30T01:29:51.288Z,83.09
2018-08-30T01:30:51.309Z,82.90
2018-08-30T01:31:51.335Z,82.52
2018-08-30T01:32:51.353Z,82.81
2018-08-30T01:33:51.382Z,82.90
2018-08-30T01:34:51.407Z,82.42
2018-08-30T01:35:51.419Z,82.81
2018-08-30T01:36:51.441Z,82.71
2018-08-30T01:37:51.468Z,83.00
2018-08-30T01:38:51.484Z,83.19
2018-08-30T01:39:51.510Z,83.48
2018-08-30T01:40:51.531Z,83.29
2018-08-30T01:41:51.548Z,83.29
2018-08-30T01:42:51.584Z,83.48
2018-08-30T01:43:51.598Z,83.58
2018-08-30T01:44:51.617Z,83.76
2018-08-30T01:45:51.641Z,83.48
2018-08-30T01:46:51.651Z,83.58
2018-08-30T01:47:51.676Z,83.76
2018-08-30T01:48:51.707Z,84.25
2018-08-30T01:49:51.721Z,84.05
2018-08-30T01:50:51.746Z,84.15
2018-08-30T01:51:51.771Z,83.86
2018-08-30T01:52:51.781Z,83.95
2018-08-30T01:53:51.805Z,83.86
2018-08-30T01:54:51.837Z,83.95
2018-08-30T01:55:51.852Z,84.05
2018-08-30T01:56:51.873Z,84.15
2018-08-30T01:57:51.886Z,84.34
2018-08-30T01:58:51.915Z,84.25
2018-08-30T01:59:51.936Z,84.25
2018-08-30T02:00:51.955Z,84.34
2018-08-30T02:01:51.980Z,84.44
2018-08-30T02:02:52.004Z,84.25
2018-08-30T02:03:52.018Z,84.25
2018-08-30T02:04:52.048Z,84.53
2018-08-30T02:05:52.062Z,84.34
2018-08-30T02:06:52.089Z,84.25
2018-08-30T02:07:52.111Z,84.25
2018-08-30T02:08:52.120Z,84.44
2018-08-30T02:09:52.159Z,84.25
2018-08-30T02:10:52.177Z,84.63
2018-08-30T02:11:52.196Z,84.44
2018-08-30T02:12:52.214Z,84.34
2018-08-30T02:13:52.240Z,84.25
2018-08-30T02:14:52.251Z,84.63
2018-08-30T02:15:52.276Z,84.91
2018-08-30T02:16:52.319Z,84.44
2018-08-30T02:17:52.320Z,84.63
2018-08-30T02:18:52.344Z,84.44
2018-08-30T02:19:52.356Z,84.72
2018-08-30T02:20:52.387Z,84.53
2018-08-30T02:21:52.411Z,84.72
2018-08-30T02:22:52.427Z,84.39
2018-08-30T02:23:52.454Z,84.78
2018-08-30T02:24:52.475Z,85.25
2018-08-30T02:25:52.534Z,84.88
2018-08-30T02:26:52.518Z,85.06
2018-08-30T02:27:52.530Z,84.78
2018-08-30T02:28:52.553Z,84.78
2018-08-30T02:29:52.577Z,85.06
2018-08-30T02:30:52.606Z,85.25
2018-08-30T02:31:52.618Z,85.16
2018-08-30T02:32:52.648Z,85.64
2018-08-30T02:33:52.664Z,85.54
2018-08-30T02:34:52.684Z,85.83
2018-08-30T02:35:52.698Z,85.35
2018-08-30T02:36:52.728Z,86.02
2018-08-30T02:37:52.753Z,85.74
2018-08-30T02:38:52.766Z,85.74
2018-08-30T02:39:52.792Z,85.83
2018-08-30T02:40:52.814Z,85.74
2018-08-30T02:41:52.827Z,85.83
2018-08-30T02:42:52.858Z,85.93
2018-08-30T02:43:52.872Z,85.74
2018-08-30T02:44:52.894Z,85.93
2018-08-30T02:45:52.923Z,85.74
2018-08-30T02:46:52.931Z,85.74
2018-08-30T02:47:52.957Z,85.83
2018-08-30T02:48:53.032Z,86.21
2018-08-30T02:49:53.001Z,86.02
2018-08-30T02:50:53.023Z,86.88
2018-08-30T02:51:53.037Z,86.88
2018-08-30T02:52:53.065Z,86.79
2018-08-30T02:53:53.092Z,86.69
2018-08-30T02:54:53.108Z,86.21
2018-08-30T02:55:53.133Z,86.41
2018-08-30T02:56:53.156Z,86.98
2018-08-30T02:57:53.168Z,86.88
2018-08-30T02:58:53.197Z,86.84
2018-08-30T02:59:53.216Z,86.55
2018-08-30T03:00:53.233Z,86.88
2018-08-30T03:01:53.258Z,86.41
2018-08-30T03:02:53.273Z,86.08
2018-08-30T03:03:53.299Z,86.21
2018-08-30T03:04:53.329Z,86.50
2018-08-30T03:05:53.343Z,86.12
2018-08-30T03:06:53.370Z,86.88
2018-08-30T03:07:53.382Z,86.79
2018-08-30T03:08:53.405Z,86.79
2018-08-30T03:09:53.432Z,86.69
2018-08-30T03:10:53.446Z,86.88
2018-08-30T03:11:53.472Z,86.98
2018-08-30T03:12:53.503Z,86.88
2018-08-30T03:13:53.516Z,86.69
2018-08-30T03:14:53.537Z,86.69
2018-08-30T03:15:53.551Z,86.88
2018-08-30T03:16:53.581Z,86.98
2018-08-30T03:17:53.613Z,86.65
2018-08-30T03:18:53.625Z,86.79
2018-08-30T03:19:53.652Z,86.79
2018-08-30T03:20:53.677Z,86.84
2018-08-30T03:21:53.690Z,86.84
2018-08-30T03:22:53.717Z,87.55
2018-08-30T03:23:53.730Z,87.51
2018-08-30T03:24:53.755Z,87.84
2018-08-30T03:25:53.782Z,88.03
2018-08-30T03:26:53.795Z,87.37
2018-08-30T03:27:53.822Z,87.27
2018-08-30T03:28:53.836Z,87.46
2018-08-30T03:29:53.861Z,87.37
2018-08-30T03:30:53.939Z,87.51
2018-08-30T03:31:53.901Z,87.94
2018-08-30T03:32:53.926Z,87.70
2018-08-30T03:33:53.952Z,88.09
2018-08-30T03:34:53.965Z,87.08
2018-08-30T03:35:54.006Z,87.27
2018-08-30T03:36:54.009Z,87.46
2018-08-30T03:37:54.031Z,86.84
2018-08-30T03:38:54.057Z,87.37
2018-08-30T03:39:54.071Z,87.08
2018-08-30T03:40:54.095Z,87.37
2018-08-30T03:41:54.122Z,87.17
2018-08-30T03:42:54.135Z,86.88
2018-08-30T03:43:54.161Z,87.17
2018-08-30T03:44:54.175Z,87.32
2018-08-30T03:45:54.203Z,87.08
2018-08-30T03:46:54.259Z,87.37
2018-08-30T03:47:54.240Z,87.37
2018-08-30T03:48:54.265Z,87.17
2018-08-30T03:49:54.293Z,87.46
2018-08-30T03:50:54.306Z,87.27
2018-08-30T03:51:54.332Z,87.37
2018-08-30T03:52:54.358Z,87.46
2018-08-30T03:53:54.371Z,87.27
2018-08-30T03:54:54.397Z,86.69
2018-08-30T03:55:54.410Z,87.17
2018-08-30T03:56:54.449Z,87.27
2018-08-30T03:57:54.461Z,87.08
2018-08-30T03:58:54.476Z,87.37
2018-08-30T03:59:54.502Z,87.08
2018-08-30T04:00:54.531Z,87.46
2018-08-30T04:01:54.541Z,87.17
2018-08-30T04:02:54.566Z,88.03
2018-08-30T04:03:54.592Z,88.03
2018-08-30T04:04:54.606Z,88.03
2018-08-30T04:05:54.632Z,87.84
2018-08-30T04:06:54.664Z,87.17
2018-08-30T04:07:54.671Z,87.08
2018-08-30T04:08:54.696Z,86.79
2018-08-30T04:09:54.713Z,87.08
2018-08-30T04:10:54.736Z,87.37
2018-08-30T04:11:54.766Z,87.74
2018-08-30T04:12:54.776Z,88.08
2018-08-30T04:13:54.802Z,87.17
2018-08-30T04:14:54.829Z,87.27
2018-08-30T04:15:54.841Z,87.17
2018-08-30T04:16:54.872Z,87.37
2018-08-30T04:17:54.883Z,87.27
2018-08-30T04:18:54.906Z,86.88
2018-08-30T04:19:54.933Z,86.93
2018-08-30T04:20:55.049Z,87.60
2018-08-30T04:21:54.975Z,87.08
2018-08-30T04:22:54.999Z,86.93
2018-08-30T04:23:55.011Z,86.93
2018-08-30T04:24:55.037Z,87.12
2018-08-30T04:25:55.063Z,86.93
2018-08-30T04:26:55.088Z,86.93
2018-08-30T04:27:55.103Z,86.83
2018-08-30T04:28:55.131Z,86.93
2018-08-30T04:29:55.142Z,86.35
2018-08-30T04:30:55.168Z,86.54
2018-08-30T04:31:55.194Z,86.83
2018-08-30T04:32:55.208Z,86.45
2018-08-30T04:33:55.234Z,86.74
2018-08-30T04:34:55.248Z,86.93
2018-08-30T04:35:55.268Z,86.93
2018-08-30T04:36:55.285Z,87.02
2018-08-30T04:37:55.298Z,86.64
2018-08-30T04:38:55.327Z,86.93
2018-08-30T04:39:55.352Z,86.64
2018-08-30T04:40:55.370Z,86.54
2018-08-30T04:41:55.396Z,86.45
2018-08-30T04:42:55.423Z,86.93
2018-08-30T04:43:55.431Z,86.54
2018-08-30T04:44:55.461Z,86.93
2018-08-30T04:45:55.487Z,86.74
2018-08-30T04:46:55.498Z,86.35
2018-08-30T04:47:55.536Z,86.25
2018-08-30T04:48:55.546Z,86.07
2018-08-30T04:49:55.559Z,86.16
2018-08-30T04:50:55.594Z,87.12
2018-08-30T04:51:55.618Z,86.93
2018-08-30T04:52:55.627Z,86.74
2018-08-30T04:53:55.652Z,87.16
2018-08-30T04:54:55.689Z,86.83
2018-08-30T04:55:55.691Z,87.07
2018-08-30T04:56:55.721Z,86.78
2018-08-30T04:57:55.747Z,86.97
2018-08-30T04:58:55.754Z,86.78
2018-08-30T04:59:55.781Z,87.16
2018-08-30T05:00:55.811Z,86.68
2018-08-30T05:01:55.826Z,87.55
2018-08-30T05:02:55.852Z,88.41
2018-08-30T05:03:55.879Z,89.18
2018-08-30T05:04:55.888Z,89.37
2018-08-30T05:05:55.913Z,89.65
2018-08-30T05:06:55.942Z,89.94
2018-08-30T05:07:55.956Z,90.33
2018-08-30T05:08:55.978Z,90.42
2018-08-30T05:09:56.020Z,90.33
2018-08-30T05:10:56.019Z,90.71
2018-08-30T05:11:56.044Z,90.42
2018-08-30T05:12:56.075Z,90.33
2018-08-30T05:13:56.089Z,90.33
2018-08-30T05:14:56.115Z,90.42
2018-08-30T05:15:56.141Z,90.23
2018-08-30T05:16:56.152Z,91.09
2018-08-30T05:17:56.175Z,90.71
2018-08-30T05:18:56.200Z,90.90
2018-08-30T05:19:56.213Z,90.90
2018-08-30T05:20:56.244Z,90.52
2018-08-30T05:21:56.270Z,90.61
2018-08-30T05:22:56.305Z,90.52
2018-08-30T05:23:56.307Z,90.81
2018-08-30T05:24:56.337Z,90.33
2018-08-30T05:25:56.350Z,90.52
2018-08-30T05:26:56.375Z,90.42
2018-08-30T05:27:56.405Z,90.33
2018-08-30T05:28:56.408Z,90.52
2018-08-30T05:29:56.555Z,90.33
2018-08-30T05:30:56.465Z,90.42
2018-08-30T05:31:56.479Z,90.04
2018-08-30T05:32:56.500Z,90.04
2018-08-30T05:33:56.515Z,89.94
2018-08-30T05:34:56.542Z,90.23
2018-08-30T05:35:56.567Z,90.04
2018-08-30T05:36:56.597Z,89.56
2018-08-30T05:37:56.611Z,89.85
2018-08-30T05:38:56.639Z,88.98
2018-08-30T05:39:56.646Z,89.08
2018-08-30T05:40:56.674Z,88.79
2018-08-30T05:41:56.700Z,88.79
2018-08-30T05:42:56.717Z,88.70
2018-08-30T05:43:56.743Z,89.18
2018-08-30T05:44:56.764Z,89.56
2018-08-30T05:45:56.777Z,89.56
2018-08-30T05:46:56.807Z,89.94
2018-08-30T05:47:56.833Z,90.14
2018-08-30T05:48:56.858Z,90.14
2018-08-30T05:49:56.869Z,90.61
2018-08-30T05:50:56.893Z,90.90
2018-08-30T05:51:56.907Z,90.33
2018-08-30T05:52:56.937Z,90.33
2018-08-30T05:53:56.962Z,90.81
2018-08-30T05:54:56.985Z,90.23
2018-08-30T05:55:57.000Z,89.94
2018-08-30T05:56:57.052Z,89.94
2018-08-30T05:57:57.045Z,90.52
2018-08-30T05:58:57.079Z,89.85
2018-08-30T05:59:57.095Z,90.23
2018-08-30T06:00:57.114Z,90.23
2018-08-30T06:01:57.128Z,90.04
2018-08-30T06:02:57.158Z,89.85
2018-08-30T06:03:57.184Z,89.94
2018-08-30T06:04:57.194Z,89.65
2018-08-30T06:05:57.232Z,89.65
2018-08-30T06:06:57.246Z,89.08
2018-08-30T06:07:57.262Z,88.89
2018-08-30T06:08:57.291Z,88.98
2018-08-30T06:09:57.318Z,89.18
2018-08-30T06:10:57.323Z,89.22
2018-08-30T06:11:57.349Z,88.74
2018-08-30T06:12:57.395Z,89.03
2018-08-30T06:13:57.395Z,88.45
2018-08-30T06:14:57.422Z,88.84
2018-08-30T06:15:57.447Z,88.45
2018-08-30T06:16:57.458Z,88.45
2018-08-30T06:17:57.483Z,88.45
2018-08-30T06:18:57.510Z,88.55
2018-08-30T06:19:57.537Z,88.35
2018-08-30T06:20:57.548Z,88.79
2018-08-30T06:21:57.572Z,88.93
2018-08-30T06:22:57.602Z,88.98
2018-08-30T06:23:57.614Z,88.69
2018-08-30T06:24:57.643Z,88.79
2018-08-30T06:25:57.670Z,88.69
2018-08-30T06:26:57.721Z,89.26
2018-08-30T06:27:57.713Z,89.07
2018-08-30T06:28:57.734Z,89.26
2018-08-30T06:29:57.758Z,89.07
2018-08-30T06:30:57.774Z,89.36
2018-08-30T06:31:57.801Z,89.36
2018-08-30T06:32:57.831Z,89.12
2018-08-30T06:33:57.839Z,89.22
2018-08-30T06:34:57.865Z,89.22
2018-08-30T06:35:57.891Z,89.12
2018-08-30T06:36:57.912Z,88.73
2018-08-30T06:37:57.926Z,88.83
2018-08-30T06:38:57.950Z,88.73
2018-08-30T06:39:57.975Z,88.73
2018-08-30T06:40:58.007Z,89.26
2018-08-30T06:41:58.020Z,88.39
2018-08-30T06:42:58.045Z,88.78
2018-08-30T06:43:58.070Z,88.59
2018-08-30T06:44:58.100Z,88.59
2018-08-30T06:45:58.113Z,88.68
2018-08-30T06:46:58.139Z,88.20
2018-08-30T06:47:58.163Z,88.63
2018-08-30T06:48:58.273Z,88.44
2018-08-30T06:49:58.199Z,88.24
2018-08-30T06:50:58.229Z,88.34
2018-08-30T06:51:58.255Z,88.24
2018-08-30T06:52:58.276Z,88.34
2018-08-30T06:53:58.302Z,87.96
2018-08-30T06:54:58.320Z,87.67
2018-08-30T06:55:58.342Z,87.33
2018-08-30T06:56:58.376Z,87.62
2018-08-30T06:57:58.399Z,87.71
2018-08-30T06:58:58.419Z,87.71
2018-08-30T06:59:58.445Z,87.90
2018-08-30T07:00:58.463Z,88.39
2018-08-30T07:01:58.489Z,88.00
2018-08-30T07:02:58.527Z,88.77
2018-08-30T07:03:58.543Z,89.06
2018-08-30T07:04:58.565Z,89.92
2018-08-30T07:05:58.579Z,90.31
2018-08-30T07:06:58.656Z,90.21
2018-08-30T07:07:58.638Z,90.89
2018-08-30T07:08:58.656Z,91.22
2018-08-30T07:09:58.682Z,91.52
2018-08-30T07:10:58.696Z,91.71
2018-08-30T07:11:58.720Z,91.99
2018-08-30T07:12:58.749Z,92.57
2018-08-30T07:13:58.775Z,92.29
2018-08-30T07:14:58.859Z,92.29
2018-08-30T07:15:58.813Z,92.29
2018-08-30T07:16:58.842Z,92.57
2018-08-30T07:17:58.881Z,93.05
2018-08-30T07:18:58.892Z,93.53
2018-08-30T07:19:58.907Z,93.63
2018-08-30T07:20:58.949Z,93.73
2018-08-30T07:21:58.953Z,93.29
2018-08-30T07:22:58.979Z,94.06
2018-08-30T07:23:58.993Z,93.96
2018-08-30T07:24:59.023Z,94.49
2018-08-30T07:25:59.048Z,94.26
2018-08-30T07:26:59.076Z,94.54
2018-08-30T07:27:59.091Z,94.26
2018-08-30T07:28:59.113Z,95.03
2018-08-30T07:29:59.139Z,95.31
2018-08-30T07:30:59.167Z,95.03
2018-08-30T07:31:59.180Z,95.60
2018-08-30T07:32:59.201Z,95.79
2018-08-30T07:33:59.227Z,95.79
2018-08-30T07:34:59.370Z,95.60
2018-08-30T07:35:59.269Z,95.89
2018-08-30T07:36:59.300Z,96.08
2018-08-30T07:37:59.325Z,96.08
2018-08-30T07:38:59.348Z,96.47
2018-08-30T07:39:59.373Z,96.56
2018-08-30T07:40:59.402Z,96.17
2018-08-30T07:41:59.416Z,97.04
2018-08-30T07:42:59.440Z,96.37
2018-08-30T07:43:59.520Z,96.66
2018-08-30T07:44:59.475Z,96.56
2018-08-30T07:45:59.502Z,96.75
2018-08-30T07:46:59.534Z,96.94
2018-08-30T07:47:59.566Z,96.90
2018-08-30T07:48:59.583Z,96.37
2018-08-30T07:49:59.595Z,96.75
2018-08-30T07:50:59.689Z,96.61
2018-08-30T07:51:59.645Z,96.75
2018-08-30T07:52:59.674Z,96.94
2018-08-30T07:53:59.701Z,96.75
2018-08-30T07:54:59.711Z,96.85
2018-08-30T07:55:59.736Z,97.14
2018-08-30T07:56:59.766Z,97.42
2018-08-30T07:57:59.792Z,97.14
2018-08-30T07:58:59.807Z,97.42
2018-08-30T07:59:59.879Z,97.71
2018-08-30T08:00:59.858Z,97.52
2018-08-30T08:01:59.885Z,97.33
2018-08-30T08:02:59.908Z,97.81
2018-08-30T08:03:59.923Z,97.81
2018-08-30T08:04:59.944Z,97.62
2018-08-30T08:05:59.994Z,97.81
2018-08-30T08:07:00.037Z,97.47
2018-08-30T08:08:00.013Z,97.42
2018-08-30T08:09:00.041Z,97.71
2018-08-30T08:10:00.068Z,97.42
2018-08-30T08:11:00.089Z,97.81
2018-08-30T08:12:00.167Z,97.42
2018-08-30T08:13:00.134Z,97.52
2018-08-30T08:14:00.159Z,97.47
2018-08-30T08:15:00.183Z,97.81
2018-08-30T08:16:00.210Z,97.52
2018-08-30T08:17:00.233Z,97.42
2018-08-30T08:18:00.265Z,97.62
2018-08-30T08:19:00.332Z,97.62
2018-08-30T08:20:00.301Z,97.71
2018-08-30T08:21:00.325Z,97.52
2018-08-30T08:22:00.338Z,97.52
2018-08-30T08:23:00.361Z,97.76
2018-08-30T08:24:00.388Z,97.91
2018-08-30T08:25:00.418Z,97.81
2018-08-30T08:26:00.443Z,97.81
2018-08-30T08:27:00.455Z,97.62
2018-08-30T08:28:00.482Z,97.71
2018-08-30T08:29:00.510Z,97.52
2018-08-30T08:30:00.535Z,97.91
2018-08-30T08:31:00.557Z,97.71
2018-08-30T08:32:00.574Z,97.71
2018-08-30T08:33:00.597Z,97.62
2018-08-30T08:34:00.622Z,97.62
2018-08-30T08:35:00.655Z,97.81
2018-08-30T08:36:00.666Z,97.86
2018-08-30T08:37:00.688Z,98.10
2018-08-30T08:38:00.715Z,98.10
2018-08-30T08:39:00.743Z,97.52
2018-08-30T08:40:00.764Z,97.42
2018-08-30T08:41:00.783Z,97.81
2018-08-30T08:42:00.808Z,97.42
2018-08-30T08:43:00.836Z,97.62
2018-08-30T08:44:00.857Z,98.10
2018-08-30T08:45:00.873Z,97.91
2018-08-30T08:46:00.912Z,98.39
2018-08-30T08:47:00.927Z,98.00
2018-08-30T08:48:00.953Z,98.00
2018-08-30T08:49:00.963Z,97.91
2018-08-30T08:50:00.989Z,97.91
2018-08-30T08:51:01.020Z,98.00
2018-08-30T08:52:01.043Z,98.00
2018-08-30T08:53:01.054Z,98.00
2018-08-30T08:54:01.078Z,98.29
2018-08-30T08:55:01.114Z,97.81
2018-08-30T08:56:01.132Z,98.10
2018-08-30T08:57:01.161Z,98.19
2018-08-30T08:58:01.176Z,98.10
2018-08-30T08:59:01.249Z,98.10
2018-08-30T09:00:01.223Z,98.48
2018-08-30T09:01:01.253Z,98.29
2018-08-30T09:02:01.266Z,98.77
2018-08-30T09:03:01.292Z,98.39
2018-08-30T09:04:01.316Z,98.29
2018-08-30T09:05:01.341Z,98.48
2018-08-30T09:06:01.352Z,98.44
2018-08-30T09:07:01.427Z,98.34
2018-08-30T09:08:01.409Z,98.39
2018-08-30T09:09:01.433Z,98.34
2018-08-30T09:10:01.449Z,98.53
2018-08-30T09:11:01.470Z,98.05
2018-08-30T09:12:01.495Z,98.24
2018-08-30T09:13:01.525Z,98.00
2018-08-30T09:14:01.551Z,98.24
2018-08-30T09:15:01.573Z,98.14
2018-08-30T09:16:01.587Z,97.96
2018-08-30T09:17:01.618Z,97.96
2018-08-30T09:18:01.642Z,98.24
2018-08-30T09:19:01.670Z,98.14
2018-08-30T09:20:01.696Z,98.53
2018-08-30T09:21:01.719Z,98.29
2018-08-30T09:22:01.731Z,98.48
2018-08-30T09:23:01.824Z,98.34
2018-08-30T09:24:01.786Z,98.10
2018-08-30T09:25:01.807Z,98.10
2018-08-30T09:26:01.821Z,97.91
2018-08-30T09:27:01.851Z,98.48
2018-08-30T09:28:01.875Z,98.39
2018-08-30T09:29:01.907Z,98.00
2018-08-30T09:30:01.918Z,98.00
2018-08-30T09:31:01.996Z,98.19
2018-08-30T09:32:01.973Z,98.39
2018-08-30T09:33:01.990Z,98.96
2018-08-30T09:34:02.007Z,98.10
2018-08-30T09:35:02.029Z,98.96
2018-08-30T09:36:02.055Z,98.10
2018-08-30T09:37:02.086Z,98.29
2018-08-30T09:38:02.099Z,98.10
2018-08-30T09:39:02.121Z,98.86
2018-08-30T09:40:02.147Z,98.86
2018-08-30T09:41:02.178Z,98.68
2018-08-30T09:42:02.204Z,98.77
2018-08-30T09:43:02.215Z,98.77
2018-08-30T09:44:02.242Z,98.96
2018-08-30T09:45:02.266Z,99.06
2018-08-30T09:46:02.290Z,98.58
2018-08-30T09:47:02.306Z,98.29
2018-08-30T09:48:02.333Z,98.68
2018-08-30T09:49:02.356Z,99.15
2018-08-30T09:50:02.397Z,99.06
2018-08-30T09:51:02.396Z,99.15
2018-08-30T09:52:02.422Z,99.35
2018-08-30T09:53:02.452Z,99.25
2018-08-30T09:54:02.478Z,99.15
2018-08-30T09:55:02.486Z,98.58
2018-08-30T09:56:02.511Z,99.15
2018-08-30T09:57:02.645Z,98.86
2018-08-30T09:58:02.566Z,99.15
2018-08-30T09:59:02.595Z,98.68
2018-08-30T10:00:02.609Z,99.15
2018-08-30T10:01:02.630Z,98.86
2018-08-30T10:02:02.657Z,98.68
2018-08-30T10:03:02.688Z,99.06
2018-08-30T10:04:02.701Z,98.86
2018-08-30T10:05:02.721Z,98.19
2018-08-30T10:06:02.748Z,98.58
2018-08-30T10:07:02.772Z,98.77
2018-08-30T10:08:02.797Z,98.77
2018-08-30T10:09:02.816Z,98.58
2018-08-30T10:10:02.841Z,98.77
2018-08-30T10:11:02.866Z,99.01
2018-08-30T10:12:02.892Z,98.29
2018-08-30T10:13:02.908Z,98.48
2018-08-30T10:14:02.934Z,98.29
2018-08-30T10:15:02.958Z,98.68
2018-08-30T10:16:03.052Z,98.63
2018-08-30T10:17:02.994Z,98.77
2018-08-30T10:18:03.019Z,99.06
2018-08-30T10:19:03.049Z,98.68
2018-08-30T10:20:03.076Z,98.96
2018-08-30T10:21:03.097Z,98.10
2018-08-30T10:22:03.112Z,98.91
2018-08-30T10:23:03.137Z,98.68
2018-08-30T10:24:03.165Z,98.44
2018-08-30T10:25:03.194Z,98.29
2018-08-30T10:26:03.208Z,98.44
2018-08-30T10:27:03.235Z,97.96
2018-08-30T10:28:03.254Z,98.44
2018-08-30T10:29:03.284Z,98.53
2018-08-30T10:30:03.297Z,98.44
2018-08-30T10:31:03.325Z,98.14
2018-08-30T10:32:03.352Z,98.34
2018-08-30T10:33:03.373Z,98.63
2018-08-30T10:34:03.399Z,98.44
2018-08-30T10:35:03.419Z,98.91
2018-08-30T10:36:03.440Z,98.24
2018-08-30T10:37:03.500Z,98.82
2018-08-30T10:38:03.488Z,98.91
2018-08-30T10:39:03.517Z,98.44
2018-08-30T10:40:03.529Z,98.72
2018-08-30T10:41:03.559Z,98.63
2018-08-30T10:42:03.585Z,99.21
2018-08-30T10:43:03.682Z,99.40
2018-08-30T10:44:03.619Z,98.82
2018-08-30T10:45:03.650Z,98.91
2018-08-30T10:46:03.676Z,98.72
2018-08-30T10:47:03.703Z,98.91
2018-08-30T10:48:03.717Z,99.11
2018-08-30T10:49:03.740Z,99.40
2018-08-30T10:50:03.764Z,99.30
2018-08-30T10:51:03.807Z,99.21
2018-08-30T10:52:03.820Z,99.21
2018-08-30T10:53:03.831Z,99.11
2018-08-30T10:54:03.856Z,99.01
2018-08-30T10:55:03.880Z,98.91
2018-08-30T10:56:03.905Z,99.30
2018-08-30T10:57:03.923Z,99.30
2018-08-30T10:58:03.983Z,99.21
2018-08-30T10:59:03.972Z,99.40
2018-08-30T11:00:03.998Z,99.40
2018-08-30T11:01:04.016Z,99.11
2018-08-30T11:02:04.044Z,99.30
2018-08-30T11:03:04.067Z,99.68
2018-08-30T11:04:04.094Z,99.40
2018-08-30T11:05:04.105Z,99.40
2018-08-30T11:06:04.127Z,99.68
2018-08-30T11:07:04.194Z,99.49
2018-08-30T11:08:04.219Z,99.68
2018-08-30T11:09:04.229Z,99.49
2018-08-30T11:10:04.226Z,99.59
2018-08-30T11:11:04.250Z,99.30
2018-08-30T11:12:04.273Z,99.49
2018-08-30T11:13:04.437Z,99.49
2018-08-30T11:14:04.316Z,99.01
2018-08-30T11:15:04.336Z,99.30
2018-08-30T11:16:04.365Z,99.11
2018-08-30T11:17:04.392Z,99.40
2018-08-30T11:18:04.406Z,99.40
2018-08-30T11:19:04.434Z,99.30
2018-08-30T11:20:04.464Z,98.91
2018-08-30T11:21:04.482Z,99.49
2018-08-30T11:22:04.494Z,99.11
2018-08-30T11:23:04.528Z,99.49
2018-08-30T11:24:04.551Z,99.01
2018-08-30T11:25:04.586Z,99.01
2018-08-30T11:26:04.587Z,99.11
2018-08-30T11:27:04.612Z,99.01
2018-08-30T11:28:04.636Z,99.21
2018-08-30T11:29:04.666Z,99.01
2018-08-30T11:30:04.680Z,99.21
2018-08-30T11:31:04.717Z,98.96
2018-08-30T11:32:04.729Z,99.40
2018-08-30T11:33:04.759Z,99.21
2018-08-30T11:34:04.773Z,98.72
2018-08-30T11:35:04.797Z,98.14
2018-08-30T11:36:04.823Z,98.82
2018-08-30T11:37:04.845Z,98.44
2018-08-30T11:38:04.870Z,98.44
2018-08-30T11:39:04.896Z,98.14
2018-08-30T11:40:04.910Z,98.44
2018-08-30T11:41:04.939Z,98.34
2018-08-30T11:42:04.968Z,98.19
2018-08-30T11:43:04.994Z,98.14
2018-08-30T11:44:05.010Z,97.71
2018-08-30T11:45:05.030Z,98.10
2018-08-30T11:46:05.055Z,98.00
2018-08-30T11:47:05.084Z,97.52
2018-08-30T11:48:05.109Z,97.42
2018-08-30T11:49:05.117Z,97.04
2018-08-30T11:50:05.144Z,96.75
2018-08-30T11:51:05.197Z,97.04
2018-08-30T11:52:05.203Z,97.09
2018-08-30T11:53:05.229Z,97.19
2018-08-30T11:54:05.256Z,96.99
2018-08-30T11:55:05.264Z,96.99
2018-08-30T11:56:05.293Z,96.32
2018-08-30T11:57:05.320Z,96.42
2018-08-30T11:58:05.349Z,96.12
2018-08-30T11:59:05.358Z,96.12
2018-08-30T12:00:05.395Z,95.94
2018-08-30T12:01:05.405Z,96.32
2018-08-30T12:02:05.430Z,96.12
2018-08-30T12:03:05.467Z,95.94
2018-08-30T12:04:05.488Z,95.94
2018-08-30T12:05:05.510Z,95.84
2018-08-30T12:06:05.525Z,95.84
2018-08-30T12:07:05.603Z,95.26
2018-08-30T12:08:05.616Z,95.45
2018-08-30T12:09:05.604Z,95.26
2018-08-30T12:10:05.634Z,95.31
2018-08-30T12:11:05.788Z,95.89
2018-08-30T12:12:05.664Z,95.60
2018-08-30T12:13:05.695Z,95.40
2018-08-30T12:14:05.721Z,95.02
2018-08-30T12:15:05.749Z,94.92
2018-08-30T12:16:05.789Z,94.73
2018-08-30T12:17:05.797Z,95.21
2018-08-30T12:18:05.811Z,94.82
2018-08-30T12:19:05.843Z,94.25
2018-08-30T12:20:05.865Z,94.73
2018-08-30T12:21:05.886Z,94.82
2018-08-30T12:22:05.912Z,94.15
2018-08-30T12:23:05.940Z,94.34
2018-08-30T12:24:05.970Z,94.54
2018-08-30T12:25:05.984Z,94.25
2018-08-30T12:26:06.009Z,94.64
2018-08-30T12:27:06.047Z,94.64
2018-08-30T12:28:06.056Z,94.34
2018-08-30T12:29:06.138Z,94.29
2018-08-30T12:30:06.163Z,94.29
2018-08-30T12:31:06.165Z,94.20
2018-08-30T12:32:06.167Z,93.81
2018-08-30T12:33:06.178Z,94.20
2018-08-30T12:34:06.295Z,93.81
2018-08-30T12:35:06.340Z,94.01
2018-08-30T12:36:06.318Z,93.77
2018-08-30T12:37:06.279Z,93.87
2018-08-30T12:38:06.304Z,93.96
2018-08-30T12:39:06.397Z,93.77
2018-08-30T12:40:06.430Z,93.57
2018-08-30T12:41:06.375Z,94.44
2018-08-30T12:42:06.458Z,93.96
2018-08-30T12:43:06.453Z,93.87
2018-08-30T12:44:06.514Z,93.87
2018-08-30T12:45:06.555Z,94.06
2018-08-30T12:46:06.515Z,93.96
2018-08-30T12:47:06.531Z,93.96
2018-08-30T12:48:06.587Z,94.06
2018-08-30T12:49:06.563Z,93.67
2018-08-30T12:50:06.597Z,93.96
2018-08-30T12:51:06.771Z,94.15
2018-08-30T12:52:06.725Z,94.30
2018-08-30T12:53:06.745Z,94.40